createdAt,value
2018-08-09T00:00:40.100Z,27.15
2018-08-09T00:01:20.653Z,27.17
2018-08-09T00:02:01.215Z,27.18
2018-08-09T00:02:41.844Z,27.1
2018-08-09T00:03:22.420Z,27.11
2018-08-09T00:04:02.962Z,27.07
2018-08-09T00:04:43.522Z,27.07
2018-08-09T00:05:24.122Z,27.12
2018-08-09T00:06:04.695Z,27.08
2018-08-09T00:06:45.284Z,27.17
2018-08-09T00:07:25.851Z,27.1
2018-08-09T00:08:06.425Z,27.12
2018-08-09T00:08:46.984Z,27.08
2018-08-09T00:09:27.565Z,27.07
2018-08-09T00:10:08.118Z,27.1
2018-08-09T00:10:48.697Z,27.11
2018-08-09T00:11:29.247Z,27.07
2018-08-09T00:12:09.824Z,27.05
2018-08-09T00:12:50.389Z,27.07
2018-08-09T00:13:30.953Z,27.02
2018-08-09T00:14:11.522Z,27.05
2018-08-09T00:14:52.099Z,27.03
2018-08-09T00:15:32.689Z,27.05
2018-08-09T00:16:13.263Z,27.02
2018-08-09T00:16:53.834Z,26.93
2018-08-09T00:17:34.455Z,26.93
2018-08-09T00:18:15.078Z,26.9
2018-08-09T00:18:55.666Z,27
2018-08-09T00:19:36.222Z,26.93
2018-08-09T00:20:16.786Z,26.95
2018-08-09T00:20:57.361Z,27
2018-08-09T00:21:37.927Z,26.89
2018-08-09T00:22:18.495Z,26.99
2018-08-09T00:22:59.073Z,26.95
2018-08-09T00:23:39.648Z,26.93
2018-08-09T00:24:20.226Z,26.93
2018-08-09T00:25:00.786Z,26.97
2018-08-09T00:25:41.366Z,26.9
2018-08-09T00:26:21.924Z,26.9
2018-08-09T00:27:02.487Z,26.97
2018-08-09T00:27:43.066Z,26.93
2018-08-09T00:28:23.634Z,26.9
2018-08-09T00:29:04.206Z,26.96
2018-08-09T00:29:44.764Z,26.93
2018-08-09T00:30:25.319Z,26.96
2018-08-09T00:31:05.888Z,26.93
2018-08-09T00:31:46.457Z,26.96
2018-08-09T00:32:27.023Z,26.97
2018-08-09T00:33:07.604Z,26.84
2018-08-09T00:33:48.173Z,26.8
2018-08-09T00:34:28.736Z,26.83
2018-08-09T00:35:09.302Z,26.81
2018-08-09T00:35:49.868Z,26.93
2018-08-09T00:36:30.430Z,26.96
2018-08-09T00:37:10.993Z,26.88
2018-08-09T00:37:51.551Z,26.9
2018-08-09T00:38:32.114Z,26.96
2018-08-09T00:39:12.682Z,26.92
2018-08-09T00:39:53.233Z,26.95
2018-08-09T00:40:33.807Z,26.96
2018-08-09T00:41:14.381Z,26.96
2018-08-09T00:41:54.941Z,26.96
2018-08-09T00:42:35.534Z,26.95
2018-08-09T00:43:16.101Z,26.93
2018-08-09T00:43:56.665Z,26.92
2018-08-09T00:44:37.231Z,26.92
2018-08-09T00:45:17.797Z,26.97
2018-08-09T00:45:58.381Z,26.89
2018-08-09T00:46:38.957Z,26.9
2018-08-09T00:47:19.529Z,26.92
2018-08-09T00:48:00.125Z,26.89
2018-08-09T00:48:40.668Z,26.92
2018-08-09T00:49:21.230Z,26.93
2018-08-09T00:50:01.799Z,26.8
2018-08-09T00:50:42.366Z,26.97
2018-08-09T00:51:22.929Z,26.9
2018-08-09T00:52:03.501Z,26.77
2018-08-09T00:52:44.060Z,26.92
2018-08-09T00:53:24.629Z,26.88
2018-08-09T00:54:05.193Z,26.85
2018-08-09T00:54:45.751Z,26.9
2018-08-09T00:55:26.328Z,26.88
2018-08-09T00:56:06.891Z,26.84
2018-08-09T00:56:47.488Z,26.89
2018-08-09T00:57:28.042Z,26.84
2018-08-09T00:58:08.623Z,26.88
2018-08-09T00:58:49.209Z,26.83
2018-08-09T00:59:29.774Z,26.83
2018-08-09T01:00:10.345Z,26.84
2018-08-09T01:00:50.920Z,26.83
2018-08-09T01:01:31.468Z,26.78
2018-08-09T01:02:12.052Z,26.9
2018-08-09T01:02:52.603Z,26.77
2018-08-09T01:03:33.165Z,26.78
2018-08-09T01:04:13.736Z,26.75
2018-08-09T01:04:54.302Z,26.75
2018-08-09T01:05:34.875Z,26.71
2018-08-09T01:06:15.429Z,26.75
2018-08-09T01:06:56.011Z,26.75
2018-08-09T01:07:36.583Z,26.74
2018-08-09T01:08:17.163Z,26.73
2018-08-09T01:08:57.729Z,26.65
2018-08-09T01:09:38.301Z,26.75
2018-08-09T01:10:18.862Z,26.65
2018-08-09T01:10:59.488Z,26.71
2018-08-09T01:11:40.050Z,26.68
2018-08-09T01:12:20.617Z,26.7
2018-08-09T01:13:01.223Z,26.7
2018-08-09T01:13:41.792Z,26.65
2018-08-09T01:14:22.382Z,26.68
2018-08-09T01:15:02.948Z,26.62
2018-08-09T01:15:43.519Z,26.63
2018-08-09T01:16:24.081Z,26.7
2018-08-09T01:17:04.684Z,26.59
2018-08-09T01:17:45.272Z,26.62
2018-08-09T01:18:25.877Z,26.58
2018-08-09T01:19:06.443Z,26.58
2018-08-09T01:19:47.049Z,26.55
2018-08-09T01:20:27.718Z,26.53
2018-08-09T01:21:08.286Z,26.43
2018-08-09T01:21:48.877Z,26.51
2018-08-09T01:22:29.454Z,26.43
2018-08-09T01:23:10.052Z,26.4
2018-08-09T01:23:50.605Z,26.53
2018-08-09T01:24:31.162Z,26.37
2018-08-09T01:25:11.769Z,26.36
2018-08-09T01:25:52.347Z,26.41
2018-08-09T01:26:32.910Z,26.41
2018-08-09T01:27:13.485Z,26.33
2018-08-09T01:27:54.047Z,26.41
2018-08-09T01:28:34.633Z,26.33
2018-08-09T01:29:15.191Z,26.26
2018-08-09T01:29:55.766Z,26.31
2018-08-09T01:30:36.319Z,26.25
2018-08-09T01:31:16.898Z,26.26
2018-08-09T01:31:57.480Z,26.31
2018-08-09T01:32:38.055Z,26.28
2018-08-09T01:33:18.664Z,26.26
2018-08-09T01:33:59.239Z,26.28
2018-08-09T01:34:39.795Z,26.16
2018-08-09T01:35:20.360Z,26.15
2018-08-09T01:36:00.927Z,26.16
2018-08-09T01:36:41.513Z,26.15
2018-08-09T01:37:22.067Z,26.16
2018-08-09T01:38:02.628Z,26.26
2018-08-09T01:38:43.206Z,26.22
2018-08-09T01:39:23.795Z,26.13
2018-08-09T01:40:04.373Z,26.21
2018-08-09T01:40:44.942Z,26.13
2018-08-09T01:41:25.511Z,26.09
2018-08-09T01:42:06.071Z,26.1
2018-08-09T01:42:46.667Z,26.23
2018-08-09T01:43:27.216Z,26.23
2018-08-09T01:44:07.810Z,26.21
2018-08-09T01:44:48.365Z,26.06
2018-08-09T01:45:28.932Z,26.21
2018-08-09T01:46:09.502Z,26.16
2018-08-09T01:46:50.078Z,26.03
2018-08-09T01:47:30.641Z,26.09
2018-08-09T01:48:11.212Z,26.1
2018-08-09T01:48:51.794Z,25.99
2018-08-09T01:49:32.357Z,26
2018-08-09T01:50:12.921Z,25.88
2018-08-09T01:50:53.512Z,25.87
2018-08-09T01:51:34.082Z,25.87
2018-08-09T01:52:14.652Z,25.81
2018-08-09T01:52:55.231Z,25.85
2018-08-09T01:53:35.801Z,25.8
2018-08-09T01:54:16.365Z,25.77
2018-08-09T01:54:56.928Z,25.78
2018-08-09T01:55:37.490Z,25.66
2018-08-09T01:56:18.037Z,25.69
2018-08-09T01:56:58.606Z,25.68
2018-08-09T01:57:39.170Z,25.7
2018-08-09T01:58:19.726Z,25.65
2018-08-09T01:59:00.326Z,25.65
2018-08-09T01:59:40.942Z,25.54
2018-08-09T02:00:21.531Z,25.53
2018-08-09T02:01:02.089Z,25.68
2018-08-09T02:01:42.689Z,25.5
2018-08-09T02:02:23.249Z,25.55
2018-08-09T02:03:03.816Z,25.58
2018-08-09T02:03:44.381Z,25.59
2018-08-09T02:04:24.933Z,25.5
2018-08-09T02:05:05.598Z,25.53
2018-08-09T02:05:46.072Z,25.6
2018-08-09T02:06:26.636Z,25.5
2018-08-09T02:07:07.219Z,25.48
2018-08-09T02:07:47.821Z,25.5
2018-08-09T02:08:28.342Z,25.46
2018-08-09T02:09:08.914Z,25.44
2018-08-09T02:09:49.485Z,25.4
2018-08-09T02:10:30.047Z,25.4
2018-08-09T02:11:10.607Z,25.4
2018-08-09T02:11:51.177Z,25.38
2018-08-09T02:12:31.732Z,25.38
2018-08-09T02:13:12.309Z,25.31
2018-08-09T02:13:52.877Z,25.33
2018-08-09T02:14:33.485Z,25.29
2018-08-09T02:15:14.058Z,25.25
2018-08-09T02:15:54.628Z,25.28
2018-08-09T02:16:35.194Z,25.14
2018-08-09T02:17:15.756Z,25.29
2018-08-09T02:17:56.320Z,25.13
2018-08-09T02:18:36.909Z,25.18
2018-08-09T02:19:17.477Z,25.14
2018-08-09T02:19:58.054Z,25.25
2018-08-09T02:20:38.623Z,25.14
2018-08-09T02:21:19.196Z,25.18
2018-08-09T02:21:59.761Z,25.11
2018-08-09T02:22:40.327Z,25.16
2018-08-09T02:23:20.883Z,25.18
2018-08-09T02:24:01.453Z,25.11
2018-08-09T02:24:42.008Z,25.16
2018-08-09T02:25:22.562Z,25.1
2018-08-09T02:26:03.126Z,25.06
2018-08-09T02:26:43.689Z,25.08
2018-08-09T02:27:24.253Z,25.08
2018-08-09T02:28:04.828Z,25.08
2018-08-09T02:28:45.396Z,25.04
2018-08-09T02:29:25.959Z,25.04
2018-08-09T02:30:06.538Z,25.01
2018-08-09T02:30:47.106Z,25.04
2018-08-09T02:31:27.683Z,24.91
2018-08-09T02:32:08.246Z,24.92
2018-08-09T02:32:48.850Z,24.95
2018-08-09T02:33:29.414Z,24.92
2018-08-09T02:34:09.977Z,24.99
2018-08-09T02:34:50.534Z,24.93
2018-08-09T02:35:31.099Z,24.93
2018-08-09T02:36:11.694Z,24.95
2018-08-09T02:36:52.273Z,24.96
2018-08-09T02:37:32.837Z,25.04
2018-08-09T02:38:13.409Z,24.95
2018-08-09T02:38:53.945Z,24.99
2018-08-09T02:39:34.520Z,25.04
2018-08-09T02:40:15.118Z,24.98
2018-08-09T02:40:55.669Z,24.92
2018-08-09T02:41:36.232Z,24.92
2018-08-09T02:42:16.810Z,24.95
2018-08-09T02:42:57.388Z,24.93
2018-08-09T02:43:37.968Z,24.84
2018-08-09T02:44:18.551Z,24.78
2018-08-09T02:44:59.114Z,24.81
2018-08-09T02:45:39.748Z,24.89
2018-08-09T02:46:20.345Z,24.88
2018-08-09T02:47:00.956Z,24.91
2018-08-09T02:47:41.517Z,24.84
2018-08-09T02:48:22.120Z,24.81
2018-08-09T02:49:02.705Z,24.93
2018-08-09T02:49:43.281Z,24.86
2018-08-09T02:50:23.879Z,24.93
2018-08-09T02:51:04.432Z,24.88
2018-08-09T02:51:45.006Z,24.91
2018-08-09T02:52:25.570Z,24.89
2018-08-09T02:53:06.186Z,24.81
2018-08-09T02:53:46.796Z,24.84
2018-08-09T02:54:27.353Z,24.85
2018-08-09T02:55:07.941Z,24.85
2018-08-09T02:55:48.526Z,24.76
2018-08-09T02:56:29.087Z,24.78
2018-08-09T02:57:09.667Z,24.86
2018-08-09T02:57:50.227Z,24.73
2018-08-09T02:58:30.796Z,24.85
2018-08-09T02:59:11.378Z,24.76
2018-08-09T02:59:51.947Z,24.76
2018-08-09T03:00:32.509Z,24.76
2018-08-09T03:01:13.077Z,24.73
2018-08-09T03:01:53.634Z,24.73
2018-08-09T03:02:34.201Z,24.76
2018-08-09T03:03:14.774Z,24.69
2018-08-09T03:03:55.319Z,24.63
2018-08-09T03:04:35.874Z,24.65
2018-08-09T03:05:16.459Z,24.61
2018-08-09T03:05:57.022Z,24.65
2018-08-09T03:06:37.576Z,24.68
2018-08-09T03:07:18.143Z,24.65
2018-08-09T03:07:58.704Z,24.63
2018-08-09T03:08:39.318Z,24.65
2018-08-09T03:09:19.882Z,24.7
2018-08-09T03:10:00.443Z,24.65
2018-08-09T03:10:40.999Z,24.6
2018-08-09T03:11:21.571Z,24.61
2018-08-09T03:12:02.149Z,24.65
2018-08-09T03:12:42.729Z,24.66
2018-08-09T03:13:23.306Z,24.63
2018-08-09T03:14:03.867Z,24.61
2018-08-09T03:14:44.428Z,24.58
2018-08-09T03:15:24.988Z,24.5
2018-08-09T03:16:05.550Z,24.55
2018-08-09T03:16:46.114Z,24.55
2018-08-09T03:17:26.687Z,24.58
2018-08-09T03:18:07.263Z,24.51
2018-08-09T03:18:47.827Z,24.53
2018-08-09T03:19:28.435Z,24.51
2018-08-09T03:20:09.017Z,24.43
2018-08-09T03:20:49.582Z,24.54
2018-08-09T03:21:30.149Z,24.51
2018-08-09T03:22:10.696Z,24.53
2018-08-09T03:22:51.269Z,24.45
2018-08-09T03:23:31.835Z,24.54
2018-08-09T03:24:12.477Z,24.54
2018-08-09T03:24:53.006Z,24.51
2018-08-09T03:25:33.588Z,24.5
2018-08-09T03:26:14.150Z,24.42
2018-08-09T03:26:54.718Z,24.4
2018-08-09T03:27:35.274Z,24.42
2018-08-09T03:28:15.839Z,24.43
2018-08-09T03:28:56.404Z,24.35
2018-08-09T03:29:36.968Z,24.4
2018-08-09T03:30:17.554Z,24.33
2018-08-09T03:30:58.118Z,24.36
2018-08-09T03:31:38.712Z,24.38
2018-08-09T03:32:19.279Z,24.33
2018-08-09T03:32:59.857Z,24.42
2018-08-09T03:33:40.430Z,24.42
2018-08-09T03:34:20.998Z,24.38
2018-08-09T03:35:01.552Z,24.39
2018-08-09T03:35:42.111Z,24.4
2018-08-09T03:36:22.680Z,24.32
2018-08-09T03:37:03.244Z,24.33
2018-08-09T03:37:43.822Z,24.42
2018-08-09T03:38:24.408Z,24.36
2018-08-09T03:39:04.983Z,24.29
2018-08-09T03:39:45.554Z,24.38
2018-08-09T03:40:26.123Z,24.28
2018-08-09T03:41:06.718Z,24.35
2018-08-09T03:41:47.261Z,24.28
2018-08-09T03:42:27.826Z,24.26
2018-08-09T03:43:08.519Z,24.26
2018-08-09T03:43:49.087Z,24.24
2018-08-09T03:44:29.681Z,24.23
2018-08-09T03:45:10.251Z,24.26
2018-08-09T03:45:50.816Z,24.3
2018-08-09T03:46:31.405Z,24.35
2018-08-09T03:47:11.961Z,24.33
2018-08-09T03:47:52.520Z,24.33
2018-08-09T03:48:33.073Z,24.35
2018-08-09T03:49:13.649Z,24.28
2018-08-09T03:49:54.206Z,24.33
2018-08-09T03:50:34.790Z,24.35
2018-08-09T03:51:15.351Z,24.4
2018-08-09T03:51:55.906Z,24.36
2018-08-09T03:52:36.479Z,24.35
2018-08-09T03:53:17.036Z,24.43
2018-08-09T03:53:57.609Z,24.42
2018-08-09T03:54:38.160Z,24.32
2018-08-09T03:55:18.758Z,24.35
2018-08-09T03:55:59.337Z,24.35
2018-08-09T03:56:39.903Z,24.3
2018-08-09T03:57:20.469Z,24.32
2018-08-09T03:58:01.026Z,24.26
2018-08-09T03:58:41.595Z,24.29
2018-08-09T03:59:22.159Z,24.24
2018-08-09T04:00:02.735Z,24.2
2018-08-09T04:00:43.296Z,24.18
2018-08-09T04:01:23.915Z,24.18
2018-08-09T04:02:04.481Z,24.2
2018-08-09T04:02:45.084Z,24.17
2018-08-09T04:03:25.673Z,24.18
2018-08-09T04:04:06.296Z,24.23
2018-08-09T04:04:46.822Z,24.16
2018-08-09T04:05:27.385Z,24.17
2018-08-09T04:06:07.990Z,24.35
2018-08-09T04:06:48.525Z,24.18
2018-08-09T04:07:29.094Z,24.26
2018-08-09T04:08:09.660Z,24.18
2018-08-09T04:08:50.228Z,24.2
2018-08-09T04:09:30.798Z,24.18
2018-08-09T04:10:11.367Z,24.2
2018-08-09T04:10:51.928Z,24.2
2018-08-09T04:11:32.492Z,24.21
2018-08-09T04:12:13.094Z,24.17
2018-08-09T04:12:53.668Z,24.17
2018-08-09T04:13:34.233Z,24.13
2018-08-09T04:14:14.803Z,24.21
2018-08-09T04:14:55.366Z,24.14
2018-08-09T04:15:35.940Z,24.14
2018-08-09T04:16:16.503Z,24.16
2018-08-09T04:16:57.082Z,24.14
2018-08-09T04:17:37.656Z,24.11
2018-08-09T04:18:18.217Z,24.21
2018-08-09T04:18:58.820Z,24.2
2018-08-09T04:19:39.401Z,24.16
2018-08-09T04:20:19.965Z,24.1
2018-08-09T04:21:00.520Z,24.11
2018-08-09T04:21:41.085Z,24.13
2018-08-09T04:22:21.644Z,24.16
2018-08-09T04:23:02.199Z,24.11
2018-08-09T04:23:42.791Z,24.14
2018-08-09T04:24:23.367Z,24.13
2018-08-09T04:25:03.939Z,24.03
2018-08-09T04:25:44.504Z,24.1
2018-08-09T04:26:25.088Z,24.13
2018-08-09T04:27:05.708Z,24.14
2018-08-09T04:27:46.468Z,24.1
2018-08-09T04:28:27.095Z,24.1
2018-08-09T04:29:07.616Z,24.1
2018-08-09T04:29:48.175Z,24.1
2018-08-09T04:30:28.737Z,24.1
2018-08-09T04:31:09.304Z,24.14
2018-08-09T04:31:49.864Z,24.18
2018-08-09T04:32:30.430Z,24.18
2018-08-09T04:33:11.003Z,24.1
2018-08-09T04:33:51.574Z,24.18
2018-08-09T04:34:32.182Z,24.13
2018-08-09T04:35:12.791Z,24.13
2018-08-09T04:35:53.363Z,24.18
2018-08-09T04:36:33.921Z,24.14
2018-08-09T04:37:14.519Z,24.2
2018-08-09T04:37:55.212Z,24.18
2018-08-09T04:38:35.738Z,24.21
2018-08-09T04:39:16.297Z,24.16
2018-08-09T04:39:56.858Z,24.18
2018-08-09T04:40:37.422Z,24.17
2018-08-09T04:41:17.976Z,24.2
2018-08-09T04:41:58.563Z,24.2
2018-08-09T04:42:39.134Z,24.17
2018-08-09T04:43:19.701Z,24.17
2018-08-09T04:44:00.262Z,24.21
2018-08-09T04:44:40.826Z,24.13
2018-08-09T04:45:21.399Z,24.13
2018-08-09T04:46:01.963Z,24.11
2018-08-09T04:46:42.808Z,24.08
2018-08-09T04:47:23.403Z,24.14
2018-08-09T04:48:03.980Z,24.14
2018-08-09T04:48:44.535Z,24.1
2018-08-09T04:49:25.164Z,24.08
2018-08-09T04:50:05.656Z,24.08
2018-08-09T04:50:46.224Z,24.13
2018-08-09T04:51:26.826Z,24.16
2018-08-09T04:52:07.387Z,24.14
2018-08-09T04:52:47.954Z,24.06
2018-08-09T04:53:28.512Z,23.98
2018-08-09T04:54:09.084Z,23.98
2018-08-09T04:54:49.655Z,23.98
2018-08-09T04:55:30.227Z,23.95
2018-08-09T04:56:10.809Z,23.96
2018-08-09T04:56:51.418Z,24.1
2018-08-09T04:57:31.999Z,23.96
2018-08-09T04:58:12.609Z,23.95
2018-08-09T04:58:53.126Z,23.87
2018-08-09T04:59:33.715Z,23.95
2018-08-09T05:00:14.298Z,23.95
2018-08-09T05:00:54.861Z,23.98
2018-08-09T05:01:35.435Z,23.92
2018-08-09T05:02:16.031Z,23.95
2018-08-09T05:02:56.611Z,23.98
2018-08-09T05:03:37.173Z,23.95
2018-08-09T05:04:17.772Z,24.02
2018-08-09T05:04:58.372Z,24.05
2018-08-09T05:05:38.936Z,23.95
2018-08-09T05:06:19.511Z,23.95
2018-08-09T05:07:00.096Z,23.99
2018-08-09T05:07:40.660Z,24.01
2018-08-09T05:08:21.275Z,24.03
2018-08-09T05:09:01.875Z,23.98
2018-08-09T05:09:42.455Z,24.03
2018-08-09T05:10:23.081Z,24.03
2018-08-09T05:11:03.586Z,24.08
2018-08-09T05:11:44.144Z,24.11
2018-08-09T05:12:24.721Z,24.11
2018-08-09T05:13:05.267Z,24.13
2018-08-09T05:13:45.838Z,24.16
2018-08-09T05:14:26.396Z,24.13
2018-08-09T05:15:07.014Z,24.14
2018-08-09T05:15:47.572Z,24.17
2018-08-09T05:16:28.102Z,24.2
2018-08-09T05:17:08.666Z,24.13
2018-08-09T05:17:49.235Z,24.16
2018-08-09T05:18:29.796Z,24.2
2018-08-09T05:19:10.363Z,24.3
2018-08-09T05:19:50.931Z,24.17
2018-08-09T05:20:31.507Z,24.14
2018-08-09T05:21:12.079Z,24.17
2018-08-09T05:21:52.677Z,24.26
2018-08-09T05:22:33.242Z,24.17
2018-08-09T05:23:13.854Z,24.16
2018-08-09T05:23:54.627Z,24.21
2018-08-09T05:24:35.193Z,24.21
2018-08-09T05:25:15.757Z,24.17
2018-08-09T05:25:56.314Z,24.17
2018-08-09T05:26:36.893Z,24.23
2018-08-09T05:27:17.454Z,24.02
2018-08-09T05:27:58.021Z,24.11
2018-08-09T05:28:38.589Z,24.14
2018-08-09T05:29:19.156Z,24.08
2018-08-09T05:29:59.755Z,24.13
2018-08-09T05:30:40.323Z,24.1
2018-08-09T05:31:20.887Z,24.06
2018-08-09T05:32:01.445Z,24.08
2018-08-09T05:32:42.001Z,24.23
2018-08-09T05:33:22.573Z,24.16
2018-08-09T05:34:03.226Z,24.16
2018-08-09T05:34:43.738Z,24.21
2018-08-09T05:35:24.303Z,24.21
2018-08-09T05:36:04.901Z,24.14
2018-08-09T05:36:45.437Z,24.16
2018-08-09T05:37:26.013Z,24.2
2018-08-09T05:38:06.562Z,24.23
2018-08-09T05:38:47.174Z,24.21
2018-08-09T05:39:27.741Z,24.32
2018-08-09T05:40:08.313Z,24.32
2018-08-09T05:40:48.884Z,24.36
2018-08-09T05:41:29.441Z,24.33
2018-08-09T05:42:10.018Z,24.32
2018-08-09T05:42:50.567Z,24.32
2018-08-09T05:43:31.154Z,24.33
2018-08-09T05:44:11.745Z,24.4
2018-08-09T05:44:52.316Z,24.43
2018-08-09T05:45:32.885Z,24.35
2018-08-09T05:46:13.458Z,24.43
2018-08-09T05:46:54.040Z,24.45
2018-08-09T05:47:34.602Z,24.5
2018-08-09T05:48:15.185Z,24.48
2018-08-09T05:48:55.742Z,24.55
2018-08-09T05:49:36.316Z,24.51
2018-08-09T05:50:16.885Z,24.61
2018-08-09T05:50:57.499Z,24.63
2018-08-09T05:51:38.084Z,24.65
2018-08-09T05:52:18.679Z,24.8
2018-08-09T05:52:59.353Z,24.78
2018-08-09T05:53:39.887Z,24.84
2018-08-09T05:54:20.487Z,24.81
2018-08-09T05:55:01.051Z,24.98
2018-08-09T05:55:41.676Z,25.01
2018-08-09T05:56:22.256Z,25.08
2018-08-09T05:57:02.835Z,25.04
2018-08-09T05:57:43.409Z,25.11
2018-08-09T05:58:24.098Z,25.07
2018-08-09T05:59:04.627Z,25.16
2018-08-09T05:59:45.193Z,25.14
2018-08-09T06:00:25.769Z,25.22
2018-08-09T06:01:06.342Z,25.25
2018-08-09T06:01:46.941Z,25.25
2018-08-09T06:02:27.519Z,25.32
2018-08-09T06:03:08.093Z,25.38
2018-08-09T06:03:48.712Z,25.43
2018-08-09T06:04:29.284Z,25.41
2018-08-09T06:05:09.857Z,25.43
2018-08-09T06:05:50.442Z,25.4
2018-08-09T06:06:30.998Z,25.43
2018-08-09T06:07:11.579Z,25.54
2018-08-09T06:07:52.151Z,25.59
2018-08-09T06:08:32.717Z,25.6
2018-08-09T06:09:13.305Z,25.58
2018-08-09T06:09:53.874Z,25.66
2018-08-09T06:10:34.442Z,25.7
2018-08-09T06:11:15.015Z,25.78
2018-08-09T06:11:55.594Z,25.81
2018-08-09T06:12:36.172Z,25.8
2018-08-09T06:13:16.727Z,25.9
2018-08-09T06:13:57.327Z,26
2018-08-09T06:14:37.889Z,26.09
2018-08-09T06:15:18.448Z,26.02
2018-08-09T06:15:59.015Z,26.15
2018-08-09T06:16:39.593Z,26.07
2018-08-09T06:17:20.170Z,26.1
2018-08-09T06:18:00.741Z,26.1
2018-08-09T06:18:41.323Z,26.21
2018-08-09T06:19:21.890Z,26.15
2018-08-09T06:20:02.465Z,26.18
2018-08-09T06:20:43.036Z,26.25
2018-08-09T06:21:23.617Z,26.31
2018-08-09T06:22:04.191Z,26.33
2018-08-09T06:22:44.757Z,26.26
2018-08-09T06:23:25.321Z,26.41
2018-08-09T06:24:05.925Z,26.37
2018-08-09T06:24:46.517Z,26.36
2018-08-09T06:25:27.074Z,26.53
2018-08-09T06:26:07.655Z,26.48
2018-08-09T06:26:48.230Z,26.51
2018-08-09T06:27:28.813Z,26.56
2018-08-09T06:28:09.403Z,26.68
2018-08-09T06:28:50.036Z,26.68
2018-08-09T06:29:30.603Z,26.7
2018-08-09T06:30:11.202Z,26.73
2018-08-09T06:30:51.801Z,26.8
2018-08-09T06:31:32.381Z,26.78
2018-08-09T06:32:12.953Z,26.81
2018-08-09T06:32:53.528Z,26.89
2018-08-09T06:33:34.177Z,26.97
2018-08-09T06:34:14.662Z,27.03
2018-08-09T06:34:55.279Z,27.05
2018-08-09T06:35:35.877Z,27.08
2018-08-09T06:36:16.458Z,27
2018-08-09T06:36:57.047Z,27
2018-08-09T06:37:37.627Z,27
2018-08-09T06:38:18.212Z,27.03
2018-08-09T06:38:58.826Z,27.11
2018-08-09T06:39:39.418Z,27.15
2018-08-09T06:40:20.003Z,27.15
2018-08-09T06:41:00.581Z,27.22
2018-08-09T06:41:41.152Z,27.17
2018-08-09T06:42:21.729Z,27.26
2018-08-09T06:43:02.308Z,27.33
2018-08-09T06:43:42.881Z,27.36
2018-08-09T06:44:23.534Z,27.4
2018-08-09T06:45:04.161Z,27.51
2018-08-09T06:45:44.738Z,27.54
2018-08-09T06:46:25.333Z,27.58
2018-08-09T06:47:05.912Z,27.77
2018-08-09T06:47:46.524Z,27.8
2018-08-09T06:48:27.084Z,27.83
2018-08-09T06:49:07.649Z,27.89
2018-08-09T06:49:48.219Z,27.9
2018-08-09T06:50:28.789Z,27.95
2018-08-09T06:51:09.360Z,28.02
2018-08-09T06:51:49.924Z,28.01
2018-08-09T06:52:30.486Z,28.07
2018-08-09T06:53:11.049Z,28.04
2018-08-09T06:53:51.634Z,28.02
2018-08-09T06:54:32.209Z,28.04
2018-08-09T06:55:12.797Z,28.05
2018-08-09T06:55:53.387Z,28.19
2018-08-09T06:56:33.960Z,28.15
2018-08-09T06:57:14.552Z,28.27
2018-08-09T06:57:55.132Z,28.42
2018-08-09T06:58:35.751Z,28.33
2018-08-09T06:59:16.337Z,28.37
2018-08-09T06:59:56.923Z,28.44
2018-08-09T07:00:37.501Z,28.44
2018-08-09T07:01:18.087Z,28.47
2018-08-09T07:01:58.688Z,28.56
2018-08-09T07:02:39.255Z,28.56
2018-08-09T07:03:19.846Z,28.54
2018-08-09T07:04:00.422Z,28.66
2018-08-09T07:04:41.025Z,28.7
2018-08-09T07:05:21.611Z,28.67
2018-08-09T07:06:02.177Z,28.63
2018-08-09T07:06:42.746Z,28.76
2018-08-09T07:07:23.331Z,28.84
2018-08-09T07:08:03.901Z,28.79
2018-08-09T07:08:44.507Z,28.82
2018-08-09T07:09:25.079Z,28.72
2018-08-09T07:10:05.699Z,28.64
2018-08-09T07:10:46.316Z,28.66
2018-08-09T07:11:26.891Z,28.74
2018-08-09T07:12:07.466Z,28.69
2018-08-09T07:12:48.103Z,28.66
2018-08-09T07:13:28.648Z,28.72
2018-08-09T07:14:09.235Z,28.74
2018-08-09T07:14:49.824Z,28.78
2018-08-09T07:15:30.389Z,28.81
2018-08-09T07:16:10.994Z,28.79
2018-08-09T07:16:51.568Z,28.84
2018-08-09T07:17:32.154Z,28.89
2018-08-09T07:18:12.749Z,28.93
2018-08-09T07:18:53.351Z,28.81
2018-08-09T07:19:33.877Z,28.76
2018-08-09T07:20:14.462Z,28.76
2018-08-09T07:20:55.043Z,28.69
2018-08-09T07:21:35.619Z,28.78
2018-08-09T07:22:16.200Z,28.74
2018-08-09T07:22:56.770Z,28.64
2018-08-09T07:23:37.353Z,28.64
2018-08-09T07:24:17.935Z,28.67
2018-08-09T07:24:58.545Z,28.7
2018-08-09T07:25:39.123Z,28.66
2018-08-09T07:26:19.749Z,28.79
2018-08-09T07:27:00.333Z,28.82
2018-08-09T07:27:40.895Z,28.91
2018-08-09T07:28:21.466Z,28.91
2018-08-09T07:29:02.043Z,28.89
2018-08-09T07:29:42.617Z,28.94
2018-08-09T07:30:23.198Z,29.01
2018-08-09T07:31:03.758Z,29.02
2018-08-09T07:31:44.342Z,28.98
2018-08-09T07:32:24.951Z,28.98
2018-08-09T07:33:05.506Z,28.96
2018-08-09T07:33:46.118Z,28.93
2018-08-09T07:34:26.638Z,28.91
2018-08-09T07:35:07.204Z,28.98
2018-08-09T07:35:47.821Z,29.1
2018-08-09T07:36:28.391Z,29.14
2018-08-09T07:37:08.976Z,29.16
2018-08-09T07:37:49.593Z,29.14
2018-08-09T07:38:30.168Z,29.2
2018-08-09T07:39:10.756Z,29.24
2018-08-09T07:39:51.445Z,29.27
2018-08-09T07:40:31.995Z,29.24
2018-08-09T07:41:12.808Z,29.27
2018-08-09T07:41:53.536Z,29.44
2018-08-09T07:42:34.129Z,29.38
2018-08-09T07:43:15.273Z,29.42
2018-08-09T07:43:56.070Z,29.42
2018-08-09T07:44:36.673Z,29.57
2018-08-09T07:45:17.248Z,29.49
2018-08-09T07:45:57.821Z,29.47
2018-08-09T07:46:38.390Z,29.57
2018-08-09T07:47:18.988Z,29.54
2018-08-09T07:48:00.206Z,29.61
2018-08-09T07:48:41.139Z,29.61
2018-08-09T07:49:22.053Z,29.63
2018-08-09T07:50:02.843Z,29.63
2018-08-09T07:50:43.792Z,29.6
2018-08-09T07:51:24.434Z,29.59
2018-08-09T07:52:05.276Z,29.69
2018-08-09T07:52:46.001Z,29.68
2018-08-09T07:53:26.575Z,29.68
2018-08-09T07:54:07.151Z,29.73
2018-08-09T07:54:47.744Z,29.81
2018-08-09T07:55:28.939Z,29.78
2018-08-09T07:56:09.498Z,29.78
2018-08-09T07:56:50.075Z,29.73
2018-08-09T07:57:30.656Z,29.78
2018-08-09T07:58:11.220Z,29.79
2018-08-09T07:58:51.799Z,29.69
2018-08-09T07:59:32.369Z,29.75
2018-08-09T08:00:12.958Z,29.81
2018-08-09T08:00:53.571Z,29.76
2018-08-09T08:01:34.127Z,29.71
2018-08-09T08:02:14.735Z,29.63
2018-08-09T08:02:55.296Z,29.69
2018-08-09T08:03:35.889Z,29.68
2018-08-09T08:04:16.480Z,29.63
2018-08-09T08:04:57.107Z,29.66
2018-08-09T08:05:37.726Z,29.63
2018-08-09T08:06:18.262Z,29.73
2018-08-09T08:06:58.877Z,29.69
2018-08-09T08:07:39.433Z,29.68
2018-08-09T08:08:20.006Z,29.63
2018-08-09T08:09:00.562Z,29.69
2018-08-09T08:09:41.202Z,29.68
2018-08-09T08:10:21.776Z,29.6
2018-08-09T08:11:02.352Z,29.56
2018-08-09T08:11:42.938Z,29.61
2018-08-09T08:12:23.526Z,29.49
2018-08-09T08:13:04.158Z,29.61
2018-08-09T08:13:44.717Z,29.49
2018-08-09T08:14:25.319Z,29.38
2018-08-09T08:15:05.968Z,29.44
2018-08-09T08:15:46.468Z,29.42
2018-08-09T08:16:27.056Z,29.38
2018-08-09T08:17:07.632Z,29.34
2018-08-09T08:17:48.223Z,29.35
2018-08-09T08:18:28.790Z,29.42
2018-08-09T08:19:09.363Z,29.44
2018-08-09T08:19:49.967Z,29.49
2018-08-09T08:20:30.537Z,29.49
2018-08-09T08:21:11.111Z,29.63
2018-08-09T08:21:51.691Z,29.63
2018-08-09T08:22:32.265Z,29.66
2018-08-09T08:23:13.128Z,29.72
2018-08-09T08:23:53.888Z,29.71
2018-08-09T08:24:34.732Z,29.75
2018-08-09T08:25:15.329Z,29.69
2018-08-09T08:25:55.898Z,29.73
2018-08-09T08:26:36.493Z,29.72
2018-08-09T08:27:17.067Z,29.71
2018-08-09T08:27:57.645Z,29.68
2018-08-09T08:28:38.472Z,29.72
2018-08-09T08:29:19.099Z,29.76
2018-08-09T08:29:59.774Z,29.72
2018-08-09T08:30:40.379Z,29.78
2018-08-09T08:31:21.589Z,29.72
2018-08-09T08:32:03.585Z,29.78
2018-08-09T08:32:44.333Z,29.72
2018-08-09T08:33:25.117Z,29.75
2018-08-09T08:34:05.752Z,29.78
2018-08-09T08:34:46.376Z,29.76
2018-08-09T08:35:26.961Z,29.72
2018-08-09T08:36:07.676Z,29.68
2018-08-09T08:36:48.250Z,29.63
2018-08-09T08:37:29.058Z,29.59
2018-08-09T08:38:09.731Z,29.59
2018-08-09T08:38:50.330Z,29.44
2018-08-09T08:39:31.399Z,29.42
2018-08-09T08:40:12.014Z,29.38
2018-08-09T08:40:52.602Z,29.36
2018-08-09T08:41:33.340Z,29.49
2018-08-09T08:42:13.806Z,29.35
2018-08-09T08:42:54.374Z,29.32
2018-08-09T08:43:35.095Z,29.32
2018-08-09T08:44:15.838Z,29.22
2018-08-09T08:44:57.551Z,29.22
2018-08-09T08:45:38.321Z,29.17